sensor_id;sensor_type;location;lat;lon;timestamp;pressure;altitude;pressure_sealevel;temperature;humidity
37064;BME280;23211;53.912;9.138;2022-08-19T00:02:16;101316.59;;;25.63;52.46
37064;BME280;23211;53.912;9.138;2022-08-19T00:05:03;101317.06;;;25.65;52.34
37064;BME280;23211;53.912;9.138;2022-08-19T00:07:49;101308.84;;;25.65;51.98
37064;BME280;23211;53.912;9.138;2022-08-19T00:10:35;101311.59;;;25.65;52.43
37064;BME280;23211;53.912;9.138;2022-08-19T00:13:21;101309.94;;;25.64;52.40
37064;BME280;23211;53.912;9.138;2022-08-19T00:16:07;101313.84;;;25.63;52.19
37064;BME280;23211;53.912;9.138;2022-08-19T00:18:54;101307.22;;;25.64;52.26
37064;BME280;23211;53.912;9.138;2022-08-19T00:21:40;101309.16;;;25.64;52.25
37064;BME280;23211;53.912;9.138;2022-08-19T00:24:26;101292.38;;;25.65;52.61
37064;BME280;23211;53.912;9.138;2022-08-19T00:27:13;101286.19;;;25.68;52.14
37064;BME280;23211;53.912;9.138;2022-08-19T00:29:59;101293.28;;;25.69;52.16
37064;BME280;23211;53.912;9.138;2022-08-19T00:32:47;101288.94;;;25.68;52.07
37064;BME280;23211;53.912;9.138;2022-08-19T00:35:33;101291.69;;;25.68;52.33
37064;BME280;23211;53.912;9.138;2022-08-19T00:38:19;101290.88;;;25.68;52.16
37064;BME280;23211;53.912;9.138;2022-08-19T00:41:09;101291.69;;;25.68;52.22
37064;BME280;23211;53.912;9.138;2022-08-19T00:44:17;101282.41;;;25.61;52.31
37064;BME280;23211;53.912;9.138;2022-08-19T00:47:05;101280.72;;;25.68;52.28
37064;BME280;23211;53.912;9.138;2022-08-19T00:49:55;101270.53;;;25.69;52.24
37064;BME280;23211;53.912;9.138;2022-08-19T00:52:45;101277.16;;;25.68;52.21
37064;BME280;23211;53.912;9.138;2022-08-19T00:55:33;101268.13;;;25.67;52.21
37064;BME280;23211;53.912;9.138;2022-08-19T00:58:21;101268.13;;;25.67;52.01
37064;BME280;23211;53.912;9.138;2022-08-19T01:01:07;101263.78;;;25.66;52.19
37064;BME280;23211;53.912;9.138;2022-08-19T01:03:53;101264.94;;;25.65;52.22
37064;BME280;23211;53.912;9.138;2022-08-19T01:06:40;101251.53;;;25.64;52.29
37064;BME280;23211;53.912;9.138;2022-08-19T01:09:29;101247.19;;;25.63;52.46
37064;BME280;23211;53.912;9.138;2022-08-19T01:12:15;101259.75;;;25.64;52.10
37064;BME280;23211;53.912;9.138;2022-08-19T01:15:03;101264.44;;;25.63;52.37
37064;BME280;23211;53.912;9.138;2022-08-19T01:17:50;101272.38;;;25.65;52.25
37064;BME280;23211;53.912;9.138;2022-08-19T01:20:36;101274.28;;;25.64;52.15
37064;BME280;23211;53.912;9.138;2022-08-19T01:23:23;101279.44;;;25.66;52.25
37064;BME280;23211;53.912;9.138;2022-08-19T01:26:28;101273.16;;;25.65;52.33
37064;BME280;23211;53.912;9.138;2022-08-19T01:29:14;101276.03;;;25.69;52.26
37064;BME280;23211;53.912;9.138;2022-08-19T01:32:01;101275.69;;;25.70;52.31
37064;BME280;23211;53.912;9.138;2022-08-19T01:34:47;101261.16;;;25.70;52.34
37064;BME280;23211;53.912;9.138;2022-08-19T01:37:48;101267.69;;;25.65;52.45
37064;BME280;23211;53.912;9.138;2022-08-19T01:40:37;101259.22;;;25.70;52.39
37064;BME280;23211;53.912;9.138;2022-08-19T01:43:23;101271.78;;;25.72;52.29
37064;BME280;23211;53.912;9.138;2022-08-19T01:46:09;101260.47;;;25.73;52.36
37064;BME280;23211;53.912;9.138;2022-08-19T01:48:56;101263.31;;;25.77;52.45
37064;BME280;23211;53.912;9.138;2022-08-19T01:51:42;101261.03;;;25.79;52.21
37064;BME280;23211;53.912;9.138;2022-08-19T01:54:27;101252.00;;;25.78;52.25
37064;BME280;23211;53.912;9.138;2022-08-19T01:57:13;101245.72;;;25.78;52.27
37064;BME280;23211;53.912;9.138;2022-08-19T02:00:00;101240.22;;;25.78;52.21
37064;BME280;23211;53.912;9.138;2022-08-19T02:02:57;101241.38;;;25.77;52.18
37064;BME280;23211;53.912;9.138;2022-08-19T02:05:43;101244.91;;;25.77;52.21
37064;BME280;23211;53.912;9.138;2022-08-19T02:08:30;101232.34;;;25.76;52.34
37064;BME280;23211;53.912;9.138;2022-08-19T02:11:28;101236.13;;;25.72;52.33
37064;BME280;23211;53.912;9.138;2022-08-19T02:14:16;101232.69;;;25.75;52.25
37064;BME280;23211;53.912;9.138;2022-08-19T02:17:02;101235.78;;;25.73;52.22
37064;BME280;23211;53.912;9.138;2022-08-19T02:19:48;101239.66;;;25.72;52.23
37064;BME280;23211;53.912;9.138;2022-08-19T02:22:34;101239.19;;;25.70;52.11
37064;BME280;23211;53.912;9.138;2022-08-19T02:25:20;101225.81;;;25.68;52.31
37064;BME280;23211;53.912;9.138;2022-08-19T02:28:06;101231.66;;;25.67;52.24
37064;BME280;23211;53.912;9.138;2022-08-19T02:30:56;101227.16;;;25.62;52.13
37064;BME280;23211;53.912;9.138;2022-08-19T02:33:43;101219.72;;;25.63;52.27
37064;BME280;23211;53.912;9.138;2022-08-19T02:36:29;101214.59;;;25.61;52.24
37064;BME280;23211;53.912;9.138;2022-08-19T02:39:15;101213.31;;;25.59;52.31
37064;BME280;23211;53.912;9.138;2022-08-19T02:42:01;101214.47;;;25.58;52.50
37064;BME280;23211;53.912;9.138;2022-08-19T02:44:47;101208.88;;;25.54;52.21
37064;BME280;23211;53.912;9.138;2022-08-19T02:47:33;101209.22;;;25.53;52.51
37064;BME280;23211;53.912;9.138;2022-08-19T02:50:19;101204.41;;;25.50;52.58
37064;BME280;23211;53.912;9.138;2022-08-19T02:53:05;101207.50;;;25.48;52.70
37064;BME280;23211;53.912;9.138;2022-08-19T02:55:52;101202.69;;;25.45;52.63
37064;BME280;23211;53.912;9.138;2022-08-19T02:58:38;101203.84;;;25.44;52.71
37064;BME280;23211;53.912;9.138;2022-08-19T03:01:27;101208.53;;;25.44;52.46
37064;BME280;23211;53.912;9.138;2022-08-19T03:04:15;101203.03;;;25.44;52.72
37064;BME280;23211;53.912;9.138;2022-08-19T03:07:01;101203.72;;;25.41;52.63
37064;BME280;23211;53.912;9.138;2022-08-19T03:09:46;101207.28;;;25.41;52.61
37064;BME280;23211;53.912;9.138;2022-08-19T03:12:36;101199.03;;;25.41;52.72
37064;BME280;23211;53.912;9.138;2022-08-19T03:15:22;101198.25;;;25.41;52.69
37064;BME280;23211;53.912;9.138;2022-08-19T03:18:08;101201.78;;;25.41;52.89
37064;BME280;23211;53.912;9.138;2022-08-19T03:20:54;101190.34;;;25.39;52.81
37064;BME280;23211;53.912;9.138;2022-08-19T03:23:41;101194.94;;;25.35;52.88
37064;BME280;23211;53.912;9.138;2022-08-19T03:26:27;101193.66;;;25.32;52.91
37064;BME280;23211;53.912;9.138;2022-08-19T03:29:14;101197.56;;;25.31;53.00
37064;BME280;23211;53.912;9.138;2022-08-19T03:32:02;101193.66;;;25.32;53.09
37064;BME280;23211;53.912;9.138;2022-08-19T03:34:48;101196.41;;;25.32;53.09
37064;BME280;23211;53.912;9.138;2022-08-19T03:37:36;101196.06;;;25.34;53.12
37064;BME280;23211;53.912;9.138;2022-08-19T03:40:22;101189.78;;;25.33;52.83
37064;BME280;23211;53.912;9.138;2022-08-19T03:43:07;101199.94;;;25.33;53.22
37064;BME280;23211;53.912;9.138;2022-08-19T03:46:05;101199.03;;;25.29;53.08
37064;BME280;23211;53.912;9.138;2022-08-19T03:48:53;101192.06;;;25.31;53.19
37064;BME280;23211;53.912;9.138;2022-08-19T03:51:41;101192.06;;;25.31;53.18
37064;BME280;23211;53.912;9.138;2022-08-19T03:54:27;101196.75;;;25.31;53.07
37064;BME280;23211;53.912;9.138;2022-08-19T03:57:13;101207.72;;;25.31;53.19
37064;BME280;23211;53.912;9.138;2022-08-19T03:59:59;101205.78;;;25.31;53.14
37064;BME280;23211;53.912;9.138;2022-08-19T04:02:45;101207.03;;;25.34;53.35
37064;BME280;23211;53.912;9.138;2022-08-19T04:05:31;101206.69;;;25.35;53.39
37064;BME280;23211;53.912;9.138;2022-08-19T04:08:17;101209.44;;;25.35;53.18
37064;BME280;23211;53.912;9.138;2022-08-19T04:11:10;101211.59;;;25.30;53.31
37064;BME280;23211;53.912;9.138;2022-08-19T04:13:56;101224.06;;;25.27;53.21
37064;BME280;23211;53.912;9.138;2022-08-19T04:16:43;101225.22;;;25.26;53.30
37064;BME280;23211;53.912;9.138;2022-08-19T04:19:30;101229.88;;;25.26;53.30
37064;BME280;23211;53.912;9.138;2022-08-19T04:22:16;101230.34;;;25.28;53.38
37064;BME280;23211;53.912;9.138;2022-08-19T04:25:02;101239.50;;;25.32;53.31
37064;BME280;23211;53.912;9.138;2022-08-19T04:27:48;101236.06;;;25.35;53.46
37064;BME280;23211;53.912;9.138;2022-08-19T04:30:43;101228.19;;;25.33;53.43
37064;BME280;23211;53.912;9.138;2022-08-19T04:33:29;101239.28;;;25.37;53.58
37064;BME280;23211;53.912;9.138;2022-08-19T04:36:26;101234.69;;;25.41;53.57
37064;BME280;23211;53.912;9.138;2022-08-19T04:39:16;101247.63;;;25.41;53.36
37064;BME280;23211;53.912;9.138;2022-08-19T04:42:02;101256.31;;;25.43;53.58
37064;BME280;23211;53.912;9.138;2022-08-19T04:45:09;101244.88;;;25.41;53.38
37064;BME280;23211;53.912;9.138;2022-08-19T04:47:55;101241.00;;;25.42;53.42
37064;BME280;23211;53.912;9.138;2022-08-19T04:50:44;101253.56;;;25.43;53.46
37064;BME280;23211;53.912;9.138;2022-08-19T04:53:32;101244.19;;;25.44;53.47
37064;BME280;23211;53.912;9.138;2022-08-19T04:56:20;101257.91;;;25.44;53.35
37064;BME280;23211;53.912;9.138;2022-08-19T04:59:11;101260.66;;;25.44;53.49
37064;BME280;23211;53.912;9.138;2022-08-19T05:01:57;101270.84;;;25.43;53.34
37064;BME280;23211;53.912;9.138;2022-08-19T05:04:43;101266.47;;;25.42;53.32
37064;BME280;23211;53.912;9.138;2022-08-19T05:07:28;101276.66;;;25.42;53.50
37064;BME280;23211;53.912;9.138;2022-08-19T05:10:15;101274.72;;;25.42;53.38
37064;BME280;23211;53.912;9.138;2022-08-19T05:13:01;101276.31;;;25.43;53.41
37064;BME280;23211;53.912;9.138;2022-08-19T05:15:54;101279.41;;;25.42;53.28
37064;BME280;23211;53.912;9.138;2022-08-19T05:18:41;101295.97;;;25.45;53.11
37064;BME280;23211;53.912;9.138;2022-08-19T05:21:46;101294.38;;;25.44;53.15
37064;BME280;23211;53.912;9.138;2022-08-19T05:24:50;101295.06;;;25.41;53.19
37064;BME280;23211;53.912;9.138;2022-08-19T05:27:36;101278.59;;;25.41;53.44
37064;BME280;23211;53.912;9.138;2022-08-19T05:30:22;101283.63;;;25.39;53.13
37064;BME280;23211;53.912;9.138;2022-08-19T05:33:08;101282.38;;;25.36;53.13
37064;BME280;23211;53.912;9.138;2022-08-19T05:35:55;101287.06;;;25.36;53.09
37064;BME280;23211;53.912;9.138;2022-08-19T05:38:41;101285.09;;;25.36;53.11
37064;BME280;23211;53.912;9.138;2022-08-19T05:41:27;101290.94;;;25.35;53.30
37064;BME280;23211;53.912;9.138;2022-08-19T05:44:16;101285.91;;;25.37;53.12
37064;BME280;23211;53.912;9.138;2022-08-19T05:47:04;101294.13;;;25.37;53.17
37064;BME280;23211;53.912;9.138;2022-08-19T05:49:51;101293.47;;;25.40;53.26
37064;BME280;23211;53.912;9.138;2022-08-19T05:52:37;101292.66;;;25.39;53.23
37064;BME280;23211;53.912;9.138;2022-08-19T05:55:23;101286.38;;;25.39;53.14
37064;BME280;23211;53.912;9.138;2022-08-19T05:58:10;101278.13;;;25.39;53.14
37064;BME280;23211;53.912;9.138;2022-08-19T06:00:55;101273.47;;;25.39;53.30
37064;BME280;23211;53.912;9.138;2022-08-19T06:03:44;101270.72;;;25.39;53.32
37064;BME280;23211;53.912;9.138;2022-08-19T06:06:30;101277.47;;;25.42;53.07
37064;BME280;23211;53.912;9.138;2022-08-19T06:09:16;101281.81;;;25.43;53.21
37064;BME280;23211;53.912;9.138;2022-08-19T06:12:02;101275.84;;;25.41;52.96
37064;BME280;23211;53.912;9.138;2022-08-19T06:14:49;101275.41;;;25.39;52.99
37064;BME280;23211;53.912;9.138;2022-08-19T06:17:36;101283.63;;;25.39;53.15
37064;BME280;23211;53.912;9.138;2022-08-19T06:20:22;101284.31;;;25.36;52.95
37064;BME280;23211;53.912;9.138;2022-08-19T06:23:08;101285.78;;;25.33;53.16
37064;BME280;23211;53.912;9.138;2022-08-19T06:25:54;101283.72;;;25.30;53.18
37064;BME280;23211;53.912;9.138;2022-08-19T06:28:40;101288.88;;;25.32;53.13
37064;BME280;23211;53.912;9.138;2022-08-19T06:31:30;101285.00;;;25.33;53.21
37064;BME280;23211;53.912;9.138;2022-08-19T06:34:19;101287.41;;;25.34;53.24
37064;BME280;23211;53.912;9.138;2022-08-19T06:37:05;101287.72;;;25.33;53.01
37064;BME280;23211;53.912;9.138;2022-08-19T06:39:51;101293.69;;;25.35;52.73
37064;BME280;23211;53.912;9.138;2022-08-19T06:42:37;101296.09;;;25.36;53.02
37064;BME280;23211;53.912;9.138;2022-08-19T06:45:24;101296.88;;;25.37;53.07
37064;BME280;23211;53.912;9.138;2022-08-19T06:48:10;101294.59;;;25.39;52.87
37064;BME280;23211;53.912;9.138;2022-08-19T06:50:56;101291.50;;;25.41;53.04
37064;BME280;23211;53.912;9.138;2022-08-19T06:53:41;101294.72;;;25.43;53.36
37064;BME280;23211;53.912;9.138;2022-08-19T06:56:32;101301.81;;;25.44;52.89
37064;BME280;23211;53.912;9.138;2022-08-19T06:59:22;101296.44;;;25.47;52.97
37064;BME280;23211;53.912;9.138;2022-08-19T07:02:12;101301.59;;;25.49;53.01
37064;BME280;23211;53.912;9.138;2022-08-19T07:04:58;101311.88;;;25.52;52.90
37064;BME280;23211;53.912;9.138;2022-08-19T07:07:44;101304.91;;;25.54;53.07
37064;BME280;23211;53.912;9.138;2022-08-19T07:10:29;101311.19;;;25.55;52.76
37064;BME280;23211;53.912;9.138;2022-08-19T07:13:17;101318.63;;;25.54;53.14
37064;BME280;23211;53.912;9.138;2022-08-19T07:16:07;101326.88;;;25.54;52.95
37064;BME280;23211;53.912;9.138;2022-08-19T07:18:54;101325.03;;;25.58;52.89
37064;BME280;23211;53.912;9.138;2022-08-19T07:21:40;101322.41;;;25.62;52.83
37064;BME280;23211;53.912;9.138;2022-08-19T07:24:27;101320.13;;;25.64;52.95
37064;BME280;23211;53.912;9.138;2022-08-19T07:27:14;101322.69;;;25.69;52.59
37064;BME280;23211;53.912;9.138;2022-08-19T07:30:00;101319.25;;;25.72;52.76
37064;BME280;23211;53.912;9.138;2022-08-19T07:32:46;101326.00;;;25.75;53.17
37064;BME280;23211;53.912;9.138;2022-08-19T07:35:32;101331.50;;;25.75;52.54
37064;BME280;23211;53.912;9.138;2022-08-19T07:38:17;101318.91;;;25.74;52.61
37064;BME280;23211;53.912;9.138;2022-08-19T07:41:03;101330.34;;;25.76;52.67
37064;BME280;23211;53.912;9.138;2022-08-19T07:43:50;101335.50;;;25.77;52.60
37064;BME280;23211;53.912;9.138;2022-08-19T07:46:40;101326.91;;;25.79;52.58
37064;BME280;23211;53.912;9.138;2022-08-19T07:49:26;101329.31;;;25.80;52.65
37064;BME280;23211;53.912;9.138;2022-08-19T07:52:12;101337.69;;;25.84;52.72
37064;BME280;23211;53.912;9.138;2022-08-19T07:54:58;101342.47;;;25.87;52.57
37064;BME280;23211;53.912;9.138;2022-08-19T07:57:45;101348.22;;;25.94;52.56
37064;BME280;23211;53.912;9.138;2022-08-19T08:00:31;101341.03;;;26.01;52.55
37064;BME280;23211;53.912;9.138;2022-08-19T08:03:18;101348.34;;;26.10;52.41
37064;BME280;23211;53.912;9.138;2022-08-19T08:06:05;101345.38;;;26.15;52.25
37064;BME280;23211;53.912;9.138;2022-08-19T08:09:10;101333.69;;;26.18;52.05
37064;BME280;23211;53.912;9.138;2022-08-19T08:11:59;101338.97;;;26.23;51.94
37064;BME280;23211;53.912;9.138;2022-08-19T08:14:49;101353.50;;;26.23;51.83
37064;BME280;23211;53.912;9.138;2022-08-19T08:17:35;101355.22;;;26.28;51.91
37064;BME280;23211;53.912;9.138;2022-08-19T08:20:21;101360.50;;;26.33;51.98
37064;BME280;23211;53.912;9.138;2022-08-19T08:23:07;101356.03;;;26.41;51.90
37064;BME280;23211;53.912;9.138;2022-08-19T08:26:09;101364.47;;;26.48;51.87
37064;BME280;23211;53.912;9.138;2022-08-19T08:28:55;101365.59;;;26.59;51.93
37064;BME280;23211;53.912;9.138;2022-08-19T08:31:43;101377.72;;;26.70;51.96
37064;BME280;23211;53.912;9.138;2022-08-19T08:34:29;101371.72;;;26.80;52.12
37064;BME280;23211;53.912;9.138;2022-08-19T08:37:15;101377.44;;;26.87;51.85
37064;BME280;23211;53.912;9.138;2022-08-19T08:40:56;101376.75;;;26.90;51.29
37064;BME280;23211;53.912;9.138;2022-08-19T08:43:38;101376.50;;;26.95;51.39
37064;BME280;23211;53.912;9.138;2022-08-19T08:46:34;101382.94;;;27.00;51.21
37064;BME280;23211;53.912;9.138;2022-08-19T08:49:26;101376.38;;;27.04;51.33
37064;BME280;23211;53.912;9.138;2022-08-19T08:52:24;101373.84;;;27.11;51.36
37064;BME280;23211;53.912;9.138;2022-08-19T08:55:14;101374.94;;;27.22;51.21
37064;BME280;23211;53.912;9.138;2022-08-19T08:58:12;101382.31;;;27.34;51.67
37064;BME280;23211;53.912;9.138;2022-08-19T09:01:02;101380.06;;;27.52;51.72
37064;BME280;23211;53.912;9.138;2022-08-19T09:03:47;101381.50;;;27.62;51.27
37064;BME280;23211;53.912;9.138;2022-08-19T09:06:40;101387.66;;;27.71;50.61
37064;BME280;23211;53.912;9.138;2022-08-19T09:09:40;101385.97;;;27.82;50.42
37064;BME280;23211;53.912;9.138;2022-08-19T09:15:32;101382.75;;;27.96;50.02
37064;BME280;23211;53.912;9.138;2022-08-19T09:18:20;101391.19;;;28.03;50.10
37064;BME280;23211;53.912;9.138;2022-08-19T09:21:07;101384.28;;;28.09;49.84
37064;BME280;23211;53.912;9.138;2022-08-19T09:23:54;101382.84;;;28.15;49.65
37064;BME280;23211;53.912;9.138;2022-08-19T09:26:40;101379.00;;;28.19;49.56
37064;BME280;23211;53.912;9.138;2022-08-19T09:29:25;101375.66;;;28.26;49.26
37064;BME280;23211;53.912;9.138;2022-08-19T09:32:11;101376.19;;;28.32;49.17
37064;BME280;23211;53.912;9.138;2022-08-19T09:34:57;101384.59;;;28.39;49.41
37064;BME280;23211;53.912;9.138;2022-08-19T09:37:45;101378.47;;;28.45;49.16
37064;BME280;23211;53.912;9.138;2022-08-19T09:40:31;101375.41;;;28.50;49.10
37064;BME280;23211;53.912;9.138;2022-08-19T09:43:17;101374.78;;;28.57;49.00
37064;BME280;23211;53.912;9.138;2022-08-19T09:46:04;101366.66;;;28.64;48.81
37064;BME280;23211;53.912;9.138;2022-08-19T09:48:53;101370.72;;;28.70;48.85
37064;BME280;23211;53.912;9.138;2022-08-19T09:51:40;101368.50;;;28.76;47.92
37064;BME280;23211;53.912;9.138;2022-08-19T09:54:26;101366.53;;;28.76;47.95
37064;BME280;23211;53.912;9.138;2022-08-19T09:57:12;101367.03;;;28.82;48.35
37064;BME280;23211;53.912;9.138;2022-08-19T09:59:58;101375.84;;;28.87;47.79
37064;BME280;23211;53.912;9.138;2022-08-19T10:02:44;101375.50;;;28.89;47.58
37064;BME280;23211;53.912;9.138;2022-08-19T10:05:30;101373.16;;;28.91;47.47
37064;BME280;23211;53.912;9.138;2022-08-19T10:08:36;101371.94;;;28.88;47.73
37064;BME280;23211;53.912;9.138;2022-08-19T10:11:22;101368.38;;;28.88;47.29
37064;BME280;23211;53.912;9.138;2022-08-19T10:14:08;101373.53;;;28.90;47.11
37064;BME280;23211;53.912;9.138;2022-08-19T10:16:54;101367.56;;;28.87;47.37
37064;BME280;23211;53.912;9.138;2022-08-19T10:19:40;101363.28;;;28.90;47.29
37064;BME280;23211;53.912;9.138;2022-08-19T10:22:26;101363.66;;;28.88;47.09
37064;BME280;23211;53.912;9.138;2022-08-19T10:25:12;101364.81;;;28.87;47.28
37064;BME280;23211;53.912;9.138;2022-08-19T10:27:59;101371.13;;;28.88;47.59
37064;BME280;23211;53.912;9.138;2022-08-19T10:30:45;101373.53;;;28.90;47.14
37064;BME280;23211;53.912;9.138;2022-08-19T10:33:33;101366.06;;;28.90;47.11
37064;BME280;23211;53.912;9.138;2022-08-19T10:36:23;101362.84;;;28.88;47.04
37064;BME280;23211;53.912;9.138;2022-08-19T10:39:09;101362.50;;;28.90;47.46
37064;BME280;23211;53.912;9.138;2022-08-19T10:41:57;101362.22;;;28.95;47.13
37064;BME280;23211;53.912;9.138;2022-08-19T10:44:43;101366.28;;;29.01;47.12
37064;BME280;23211;53.912;9.138;2022-08-19T10:47:29;101358.56;;;29.10;47.19
37064;BME280;23211;53.912;9.138;2022-08-19T10:50:15;101359.56;;;29.21;47.39
37064;BME280;23211;53.912;9.138;2022-08-19T10:53:19;101346.28;;;29.27;47.04
37064;BME280;23211;53.912;9.138;2022-08-19T10:56:09;101351.13;;;29.33;46.82
37064;BME280;23211;53.912;9.138;2022-08-19T10:59:14;101351.63;;;29.39;46.83
37064;BME280;23211;53.912;9.138;2022-08-19T11:02:02;101347.41;;;29.45;46.69
37064;BME280;23211;53.912;9.138;2022-08-19T11:04:49;101353.44;;;29.50;46.12
37064;BME280;23211;53.912;9.138;2022-08-19T11:07:38;101353.13;;;29.56;45.96
37064;BME280;23211;53.912;9.138;2022-08-19T11:10:24;101359.09;;;29.58;45.93
37064;BME280;23211;53.912;9.138;2022-08-19T11:13:10;101356.81;;;29.63;45.80
37064;BME280;23211;53.912;9.138;2022-08-19T11:16:18;101353.25;;;29.63;45.66
37064;BME280;23211;53.912;9.138;2022-08-19T11:19:05;101355.03;;;29.74;45.40
37064;BME280;23211;53.912;9.138;2022-08-19T11:21:53;101355.50;;;29.80;45.34
37064;BME280;23211;53.912;9.138;2022-08-19T11:24:39;101354.34;;;29.81;45.13
37064;BME280;23211;53.912;9.138;2022-08-19T11:27:25;101347.22;;;29.80;45.02
37064;BME280;23211;53.912;9.138;2022-08-19T11:30:12;101352.31;;;29.78;45.11
37064;BME280;23211;53.912;9.138;2022-08-19T11:32:58;101347.97;;;29.77;45.21
37064;BME280;23211;53.912;9.138;2022-08-19T11:35:46;101346.38;;;29.76;44.76
37064;BME280;23211;53.912;9.138;2022-08-19T11:38:32;101353.84;;;29.75;45.11
37064;BME280;23211;53.912;9.138;2022-08-19T11:41:20;101357.41;;;29.76;45.07
37064;BME280;23211;53.912;9.138;2022-08-19T11:44:08;101353.06;;;29.75;44.66
37064;BME280;23211;53.912;9.138;2022-08-19T11:46:54;101350.25;;;29.71;45.24
37064;BME280;23211;53.912;9.138;2022-08-19T11:49:40;101358.97;;;29.73;44.73
37064;BME280;23211;53.912;9.138;2022-08-19T11:52:27;101355.03;;;29.74;44.71
37064;BME280;23211;53.912;9.138;2022-08-19T11:55:13;101360.13;;;29.72;44.21
37064;BME280;23211;53.912;9.138;2022-08-19T11:57:59;101356.13;;;29.70;44.70
37064;BME280;23211;53.912;9.138;2022-08-19T12:00:45;101361.22;;;29.68;44.31
37064;BME280;23211;53.912;9.138;2022-08-19T12:03:30;101367.50;;;29.65;44.60
37064;BME280;23211;53.912;9.138;2022-08-19T12:06:19;101371.41;;;29.64;44.37
37064;BME280;23211;53.912;9.138;2022-08-19T12:09:07;101366.25;;;29.62;43.91
37064;BME280;23211;53.912;9.138;2022-08-19T12:11:54;101373.75;;;29.62;44.25
37064;BME280;23211;53.912;9.138;2022-08-19T12:14:40;101367.44;;;29.61;44.32
37064;BME280;23211;53.912;9.138;2022-08-19T12:17:26;101376.16;;;29.63;44.68
37064;BME280;23211;53.912;9.138;2022-08-19T12:20:13;101369.03;;;29.62;44.31
37064;BME280;23211;53.912;9.138;2022-08-19T12:23:01;101373.38;;;29.63;44.16
37064;BME280;23211;53.912;9.138;2022-08-19T12:25:48;101370.63;;;29.63;44.53
37064;BME280;23211;53.912;9.138;2022-08-19T12:28:37;101358.78;;;29.63;44.58
37064;BME280;23211;53.912;9.138;2022-08-19T12:31:23;101361.16;;;29.64;44.48
37064;BME280;23211;53.912;9.138;2022-08-19T12:34:09;101360.81;;;29.66;44.60
37064;BME280;23211;53.912;9.138;2022-08-19T12:36:57;101361.97;;;29.65;44.40
37064;BME280;23211;53.912;9.138;2022-08-19T12:39:43;101355.28;;;29.66;44.58
37064;BME280;23211;53.912;9.138;2022-08-19T12:42:29;101351.41;;;29.70;44.89
37064;BME280;23211;53.912;9.138;2022-08-19T12:45:15;101355.03;;;29.74;44.93
37064;BME280;23211;53.912;9.138;2022-08-19T12:48:01;101353.50;;;29.77;44.43
37064;BME280;23211;53.912;9.138;2022-08-19T12:50:48;101344.47;;;29.80;44.68
37064;BME280;23211;53.912;9.138;2022-08-19T12:53:35;101345.75;;;29.86;44.16
37064;BME280;23211;53.912;9.138;2022-08-19T12:56:21;101351.69;;;29.88;44.54
37064;BME280;23211;53.912;9.138;2022-08-19T12:59:07;101347.41;;;29.91;44.62
37064;BME280;23211;53.912;9.138;2022-08-19T13:01:53;101335.22;;;29.95;44.35
37064;BME280;23211;53.912;9.138;2022-08-19T13:04:39;101328.16;;;29.98;44.53
37064;BME280;23211;53.912;9.138;2022-08-19T13:07:26;101323.44;;;29.98;44.57
37064;BME280;23211;53.912;9.138;2022-08-19T13:10:15;101328.25;;;30.01;43.95
37064;BME280;23211;53.912;9.138;2022-08-19T13:13:03;101325.91;;;30.03;43.38
37064;BME280;23211;53.912;9.138;2022-08-19T13:15:51;101328.69;;;30.03;43.32
37064;BME280;23211;53.912;9.138;2022-08-19T13:18:38;101328.69;;;30.03;42.98
37064;BME280;23211;53.912;9.138;2022-08-19T13:21:26;101322.34;;;30.03;43.28
37064;BME280;23211;53.912;9.138;2022-08-19T13:24:17;101321.63;;;30.06;43.33
37064;BME280;23211;53.912;9.138;2022-08-19T13:27:03;101331.56;;;30.10;42.88
37064;BME280;23211;53.912;9.138;2022-08-19T13:29:49;101327.25;;;30.13;43.00
37064;BME280;23211;53.912;9.138;2022-08-19T13:32:56;101325.69;;;30.15;43.31
37064;BME280;23211;53.912;9.138;2022-08-19T13:35:58;101321.03;;;30.20;43.63
37064;BME280;23211;53.912;9.138;2022-08-19T13:38:45;101327.44;;;30.27;43.70
37064;BME280;23211;53.912;9.138;2022-08-19T13:41:31;101333.88;;;30.35;43.09
37064;BME280;23211;53.912;9.138;2022-08-19T13:44:18;101322.53;;;30.43;43.04
37064;BME280;23211;53.912;9.138;2022-08-19T13:47:05;101310.03;;;30.53;42.84
37064;BME280;23211;53.912;9.138;2022-08-19T13:49:52;101318.91;;;30.66;42.57
37064;BME280;23211;53.912;9.138;2022-08-19T13:52:39;101327.28;;;30.73;43.06
37064;BME280;23211;53.912;9.138;2022-08-19T13:55:26;101323.75;;;30.76;42.63
37064;BME280;23211;53.912;9.138;2022-08-19T13:58:12;101330.94;;;30.81;42.35
37064;BME280;23211;53.912;9.138;2022-08-19T14:00:59;101321.88;;;30.84;41.98
37064;BME280;23211;53.912;9.138;2022-08-19T14:03:44;101314.78;;;30.86;41.64
37064;BME280;23211;53.912;9.138;2022-08-19T14:06:30;101318.78;;;30.89;41.82
37064;BME280;23211;53.912;9.138;2022-08-19T14:09:16;101324.34;;;30.92;41.46
37064;BME280;23211;53.912;9.138;2022-08-19T14:12:02;101318.00;;;30.92;41.12
37064;BME280;23211;53.912;9.138;2022-08-19T14:14:48;101311.69;;;30.91;41.03
37064;BME280;23211;53.912;9.138;2022-08-19T14:17:37;101308.47;;;30.86;40.87
37064;BME280;23211;53.912;9.138;2022-08-19T14:20:23;101314.75;;;30.83;40.92
37064;BME280;23211;53.912;9.138;2022-08-19T14:23:10;101312.31;;;30.77;40.94
37064;BME280;23211;53.912;9.138;2022-08-19T14:26:09;101308.28;;;30.71;41.01
37064;BME280;23211;53.912;9.138;2022-08-19T14:28:56;101301.63;;;30.76;41.24
37064;BME280;23211;53.912;9.138;2022-08-19T14:31:43;101303.25;;;30.81;41.33
37064;BME280;23211;53.912;9.138;2022-08-19T14:34:29;101298.94;;;30.83;41.69
37064;BME280;23211;53.912;9.138;2022-08-19T14:37:17;101304.53;;;30.87;41.79
37064;BME280;23211;53.912;9.138;2022-08-19T14:40:03;101299.03;;;30.90;41.66
37064;BME280;23211;53.912;9.138;2022-08-19T14:42:49;101290.75;;;30.94;41.75